KPHF/PHF METAR and TAF weather

Enter ICAO airport designator
Station Type Date Time Source
KPHF METAR 2019/12/08 13:54 UTC NOAA

KPHF 081354Z 05003KT 10SM CLR 07/02 A3049 RMK AO2 SLP325 T00670017


Station Type Date Time Source
KPHF Decoded METAR 2019/12/08 13:54 UTC NOAA

WILLIAMSBURG INTERNATIONAL AIRPORT , VA, United States (KPHF) 37-08N 76-30W 12M
Dec 08, 2019 - 08:54 AM EST / 2019.12.08 1354 UTC
Wind: from the NE (050 degrees) at 3 MPH (3 KT):0
Visibility: 10 mile(s):0
Sky conditions: clear
Temperature: 44.1 F (6.7 C)
Dew Point: 35.1 F (1.7 C)
Relative Humidity: 70%
Pressure (altimeter): 30.49 in. Hg (1032 hPa)
ob: KPHF 081354Z 05003KT 10SM CLR 07/02 A3049 RMK AO2 SLP325 T00670017
cycle: 14

Station Type Date Time Source
KPHF TAF 2019/12/08 12:22 UTC NOAA

TAF KPHF 081120Z 0812/0912 09005KT P6SM SCT250
FM081600 14006KT P6SM BKN250
FM090000 12003KT P6SM BKN045 OVC080
FM090600 VRB03KT 5SM -RA BR OVC025
FM090800 14004KT 3SM -RA BR OVC012

Example: see airport list